createdAt,value
2023-05-17T00:00:09.385Z,0.00
2023-05-17T00:01:09.301Z,0.00
2023-05-17T00:02:09.222Z,0.00
2023-05-17T00:03:09.158Z,0.00
2023-05-17T00:04:09.129Z,0.00
2023-05-17T00:05:08.990Z,0.00
2023-05-17T00:06:08.892Z,0.00
2023-05-17T00:07:08.811Z,0.00
2023-05-17T00:08:08.734Z,0.00
2023-05-17T00:09:08.648Z,0.00
2023-05-17T00:10:08.596Z,0.00
2023-05-17T00:11:08.555Z,0.00
2023-05-17T00:12:08.404Z,0.00
2023-05-17T00:13:08.317Z,0.00
2023-05-17T00:14:08.235Z,0.00
2023-05-17T00:15:08.148Z,0.00
2023-05-17T00:16:08.074Z,0.00
2023-05-17T00:17:07.988Z,0.00
2023-05-17T00:18:08.112Z,0.00
2023-05-17T00:19:07.966Z,0.00
2023-05-17T00:20:07.813Z,0.00
2023-05-17T00:21:07.675Z,0.00
2023-05-17T00:22:07.575Z,0.00
2023-05-17T00:23:07.517Z,0.00
2023-05-17T00:24:07.412Z,0.00
2023-05-17T00:25:07.331Z,0.00
2023-05-17T00:26:07.248Z,0.00
2023-05-17T00:27:07.250Z,0.00
2023-05-17T00:28:07.075Z,0.00
2023-05-17T00:29:06.995Z,0.00
2023-05-17T00:30:06.918Z,0.00
2023-05-17T00:31:06.866Z,0.00
2023-05-17T00:32:06.752Z,0.00
2023-05-17T00:33:06.696Z,0.00
2023-05-17T00:34:06.610Z,0.00
2023-05-17T00:35:06.535Z,0.00
2023-05-17T00:36:06.419Z,0.00
2023-05-17T00:37:06.345Z,0.00
2023-05-17T00:38:06.263Z,0.00
2023-05-17T00:39:06.181Z,0.00
2023-05-17T00:40:06.096Z,0.00
2023-05-17T00:41:06.011Z,0.00
2023-05-17T00:42:05.938Z,0.00
2023-05-17T00:43:05.923Z,0.00
2023-05-17T00:44:05.764Z,0.00
2023-05-17T00:45:05.677Z,0.00
2023-05-17T00:46:05.613Z,0.00
2023-05-17T00:47:05.551Z,0.00
2023-05-17T00:48:05.560Z,0.00
2023-05-17T00:49:05.348Z,0.00
2023-05-17T00:50:05.273Z,0.00
2023-05-17T00:51:05.186Z,0.00
2023-05-17T00:52:05.105Z,0.00
2023-05-17T00:53:05.024Z,0.00
2023-05-17T00:54:04.931Z,0.00
2023-05-17T00:55:04.864Z,0.00
2023-05-17T00:56:04.779Z,0.00
2023-05-17T00:57:04.689Z,0.00
2023-05-17T00:58:04.660Z,0.00
2023-05-17T00:59:04.675Z,0.00
2023-05-17T01:00:04.448Z,0.00
2023-05-17T01:01:04.366Z,0.00
2023-05-17T01:02:04.278Z,0.00
2023-05-17T01:03:04.239Z,0.00
2023-05-17T01:04:04.228Z,0.00
2023-05-17T01:05:04.057Z,0.00
2023-05-17T01:06:03.943Z,0.00
2023-05-17T01:07:03.917Z,0.00
2023-05-17T01:08:03.787Z,0.00
2023-05-17T01:09:03.698Z,0.00
2023-05-17T01:10:03.618Z,0.00
2023-05-17T01:11:03.533Z,0.00
2023-05-17T01:12:03.456Z,0.00
2023-05-17T01:13:03.392Z,0.00
2023-05-17T01:14:03.286Z,0.00
2023-05-17T01:15:03.205Z,0.00
2023-05-17T01:16:03.124Z,0.00
2023-05-17T01:17:03.061Z,0.00
2023-05-17T01:18:02.993Z,0.00
2023-05-17T01:19:02.967Z,0.00
2023-05-17T01:20:02.935Z,0.00
2023-05-17T01:21:02.715Z,0.00
2023-05-17T01:22:02.638Z,0.00
2023-05-17T01:23:02.547Z,0.00
2023-05-17T01:24:02.467Z,0.00
2023-05-17T01:25:02.383Z,0.00
2023-05-17T01:26:02.323Z,0.00
2023-05-17T01:27:02.224Z,0.00
2023-05-17T01:28:02.170Z,0.00
2023-05-17T01:29:02.050Z,0.00
2023-05-17T01:30:01.970Z,0.00
2023-05-17T01:31:01.974Z,0.00
2023-05-17T01:32:01.813Z,0.00
2023-05-17T01:33:01.844Z,0.00
2023-05-17T01:34:01.708Z,0.00
2023-05-17T01:35:01.581Z,0.00
2023-05-17T01:36:01.464Z,0.00
2023-05-17T01:37:01.390Z,0.00
2023-05-17T01:38:01.377Z,0.00
2023-05-17T01:39:01.235Z,0.00
2023-05-17T01:40:01.171Z,0.00
2023-05-17T01:41:01.059Z,0.00
2023-05-17T01:42:00.986Z,0.00
2023-05-17T01:43:00.892Z,0.00
2023-05-17T01:44:00.821Z,0.00
2023-05-17T01:45:00.724Z,0.00
2023-05-17T01:46:00.647Z,0.00
2023-05-17T01:47:00.715Z,0.00
2023-05-17T01:48:00.546Z,0.00
2023-05-17T01:49:00.454Z,0.00
2023-05-17T01:50:00.335Z,0.00
2023-05-17T01:51:00.229Z,0.00
2023-05-17T01:52:00.153Z,0.00
2023-05-17T01:53:00.070Z,0.00
2023-05-17T01:53:59.990Z,0.00
2023-05-17T01:54:59.917Z,0.00
2023-05-17T01:55:59.828Z,0.00
2023-05-17T01:56:59.736Z,0.00
2023-05-17T01:57:59.660Z,0.00
2023-05-17T01:58:59.578Z,0.00
2023-05-17T01:59:59.492Z,0.00
2023-05-17T02:00:59.410Z,0.00
2023-05-17T02:01:59.334Z,0.00
2023-05-17T02:02:59.370Z,0.00
2023-05-17T02:03:59.195Z,0.00
2023-05-17T02:04:59.130Z,0.00
2023-05-17T02:05:58.993Z,0.00
2023-05-17T02:06:58.912Z,0.00
2023-05-17T02:07:58.831Z,0.00
2023-05-17T02:08:58.755Z,0.00
2023-05-17T02:09:58.666Z,0.00
2023-05-17T02:10:58.589Z,0.00
2023-05-17T02:11:58.503Z,0.00
2023-05-17T02:12:58.418Z,0.00
2023-05-17T02:13:58.351Z,0.00
2023-05-17T02:14:58.259Z,0.00
2023-05-17T02:15:58.174Z,0.00
2023-05-17T02:16:58.085Z,0.00
2023-05-17T02:17:58.064Z,0.00
2023-05-17T02:18:58.101Z,0.00
2023-05-17T02:19:57.846Z,0.00
2023-05-17T02:20:57.759Z,0.00
2023-05-17T02:21:57.676Z,0.00
2023-05-17T02:22:57.595Z,0.00
2023-05-17T02:23:57.561Z,0.00
2023-05-17T02:24:57.442Z,0.00
2023-05-17T02:25:57.349Z,0.00
2023-05-17T02:26:57.270Z,0.00
2023-05-17T02:27:57.189Z,0.00
2023-05-17T02:28:57.105Z,0.00
2023-05-17T02:29:57.022Z,0.00
2023-05-17T02:30:56.949Z,0.00
2023-05-17T02:31:56.856Z,0.00
2023-05-17T02:32:56.873Z,0.00
2023-05-17T02:33:56.848Z,0.00
2023-05-17T02:34:56.691Z,0.00
2023-05-17T02:35:56.522Z,0.00
2023-05-17T02:36:56.445Z,0.00
2023-05-17T02:37:56.371Z,0.00
2023-05-17T02:38:56.274Z,0.00
2023-05-17T02:39:56.203Z,0.00
2023-05-17T02:40:56.137Z,0.00
2023-05-17T02:41:56.022Z,0.00
2023-05-17T02:42:55.943Z,0.00
2023-05-17T02:43:55.863Z,0.00
2023-05-17T02:44:55.785Z,0.00
2023-05-17T02:45:55.696Z,0.00
2023-05-17T02:46:55.637Z,0.00
2023-05-17T02:47:55.559Z,0.00
2023-05-17T02:48:55.452Z,0.00
2023-05-17T02:49:55.366Z,0.00
2023-05-17T02:50:55.300Z,0.00
2023-05-17T02:51:55.203Z,0.00
2023-05-17T02:52:55.114Z,0.00
2023-05-17T02:53:55.034Z,0.00
2023-05-17T02:54:54.959Z,0.00
2023-05-17T02:55:54.878Z,0.00
2023-05-17T02:56:54.796Z,0.00
2023-05-17T02:57:54.702Z,0.00
2023-05-17T02:58:54.617Z,0.00
2023-05-17T02:59:54.544Z,0.00
2023-05-17T03:00:54.462Z,0.00
2023-05-17T03:01:54.377Z,0.00
2023-05-17T03:02:54.347Z,0.00
2023-05-17T03:03:54.301Z,0.00
2023-05-17T03:04:54.145Z,0.00
2023-05-17T03:05:54.052Z,0.00
2023-05-17T03:06:54.041Z,0.00
2023-05-17T03:07:53.874Z,0.00
2023-05-17T03:08:53.784Z,0.00
2023-05-17T03:09:53.702Z,0.00
2023-05-17T03:10:53.626Z,0.00
2023-05-17T03:11:53.542Z,0.00
2023-05-17T03:12:53.456Z,0.00
2023-05-17T03:13:53.378Z,0.00
2023-05-17T03:14:53.295Z,0.00
2023-05-17T03:15:53.209Z,0.00
2023-05-17T03:16:53.127Z,0.00
2023-05-17T03:17:53.115Z,0.00
2023-05-17T03:18:53.085Z,0.00
2023-05-17T03:19:52.949Z,0.00
2023-05-17T03:20:52.803Z,0.00
2023-05-17T03:21:52.718Z,0.00
2023-05-17T03:22:52.704Z,0.00
2023-05-17T03:23:52.545Z,0.00
2023-05-17T03:24:52.473Z,0.00
2023-05-17T03:25:52.375Z,0.00
2023-05-17T03:26:52.311Z,0.00
2023-05-17T03:27:52.264Z,0.00
2023-05-17T03:28:52.127Z,5.63
2023-05-17T03:29:52.043Z,5.63
2023-05-17T03:30:52.097Z,5.63
2023-05-17T03:31:51.874Z,5.63
2023-05-17T03:32:51.881Z,5.63
2023-05-17T03:33:51.795Z,5.63
2023-05-17T03:34:51.638Z,5.63
2023-05-17T03:35:51.543Z,5.63
2023-05-17T03:36:51.463Z,5.63
2023-05-17T03:37:51.380Z,5.63
2023-05-17T03:38:51.394Z,5.63
2023-05-17T03:39:51.213Z,11.25
2023-05-17T03:40:51.131Z,11.25
2023-05-17T03:41:51.058Z,11.25
2023-05-17T03:42:50.960Z,11.25
2023-05-17T03:43:50.889Z,11.25
2023-05-17T03:44:50.821Z,11.25
2023-05-17T03:45:50.719Z,11.25
2023-05-17T03:46:50.633Z,11.25
2023-05-17T03:47:50.568Z,11.25
2023-05-17T03:48:50.525Z,11.25
2023-05-17T03:49:50.381Z,16.88
2023-05-17T03:50:50.304Z,16.88
2023-05-17T03:51:50.219Z,16.88
2023-05-17T03:52:50.133Z,16.88
2023-05-17T03:53:50.048Z,16.88
2023-05-17T03:54:50.057Z,16.88
2023-05-17T03:55:49.887Z,16.88
2023-05-17T03:56:49.799Z,16.88
2023-05-17T03:57:49.724Z,16.88
2023-05-17T03:58:49.629Z,16.88
2023-05-17T03:59:49.550Z,22.50
2023-05-17T04:00:49.470Z,22.50
2023-05-17T04:01:49.383Z,22.50
2023-05-17T04:02:49.340Z,22.50
2023-05-17T04:03:49.240Z,22.50
2023-05-17T04:04:49.164Z,22.50
2023-05-17T04:05:49.061Z,22.50
2023-05-17T04:06:48.970Z,22.50
2023-05-17T04:07:48.890Z,28.13
2023-05-17T04:08:48.804Z,28.13
2023-05-17T04:09:48.719Z,28.13
2023-05-17T04:10:48.719Z,28.13
2023-05-17T04:11:48.558Z,28.13
2023-05-17T04:12:48.464Z,28.13
2023-05-17T04:13:48.385Z,33.75
2023-05-17T04:14:48.314Z,33.75
2023-05-17T04:15:48.228Z,33.75
2023-05-17T04:16:48.139Z,33.75
2023-05-17T04:17:48.098Z,39.38
2023-05-17T04:18:48.032Z,39.38
2023-05-17T04:19:47.997Z,39.38
2023-05-17T04:20:47.811Z,39.38
2023-05-17T04:21:47.742Z,45.00
2023-05-17T04:22:47.641Z,45.00
2023-05-17T04:23:47.553Z,45.00
2023-05-17T04:24:47.469Z,45.00
2023-05-17T04:25:47.387Z,50.63
2023-05-17T04:26:47.313Z,50.63
2023-05-17T04:27:47.230Z,50.63
2023-05-17T04:28:47.172Z,56.25
2023-05-17T04:29:47.053Z,56.25
2023-05-17T04:30:46.970Z,61.88
2023-05-17T04:31:46.892Z,61.88
2023-05-17T04:32:46.836Z,61.88
2023-05-17T04:33:46.747Z,67.50
2023-05-17T04:34:46.672Z,67.50
2023-05-17T04:35:46.559Z,73.13
2023-05-17T04:36:46.466Z,73.13
2023-05-17T04:37:46.386Z,73.13
2023-05-17T04:38:46.308Z,78.75
2023-05-17T04:39:46.222Z,78.75
2023-05-17T04:40:46.140Z,84.38
2023-05-17T04:41:46.048Z,73.13
2023-05-17T04:42:46.098Z,84.38
2023-05-17T04:43:45.889Z,78.75
2023-05-17T04:44:45.828Z,90.00
2023-05-17T04:45:45.730Z,90.00
2023-05-17T04:46:45.656Z,90.00
2023-05-17T04:47:45.634Z,90.00
2023-05-17T04:48:45.605Z,95.63
2023-05-17T04:49:45.388Z,95.63
2023-05-17T04:50:45.305Z,101.25
2023-05-17T04:51:45.230Z,101.25
2023-05-17T04:52:45.144Z,101.25
2023-05-17T04:53:45.062Z,106.88
2023-05-17T04:54:44.975Z,106.88
2023-05-17T04:55:44.897Z,112.50
2023-05-17T04:56:44.807Z,112.50
2023-05-17T04:57:44.731Z,112.50
2023-05-17T04:58:44.642Z,118.13
2023-05-17T04:59:44.553Z,118.13
2023-05-17T05:00:44.478Z,123.75
2023-05-17T05:01:44.398Z,123.75
2023-05-17T05:02:44.337Z,129.38
2023-05-17T05:03:44.250Z,129.38
2023-05-17T05:04:44.179Z,135.00
2023-05-17T05:05:44.057Z,135.00
2023-05-17T05:06:43.982Z,140.63
2023-05-17T05:07:43.891Z,140.63
2023-05-17T05:08:43.828Z,151.88
2023-05-17T05:09:43.729Z,146.25
2023-05-17T05:10:43.651Z,151.88
2023-05-17T05:11:43.564Z,151.88
2023-05-17T05:12:43.476Z,151.88
2023-05-17T05:13:43.400Z,157.50
2023-05-17T05:14:43.397Z,157.50
2023-05-17T05:15:43.230Z,157.50
2023-05-17T05:16:43.241Z,157.50
2023-05-17T05:17:43.095Z,157.50
2023-05-17T05:18:43.088Z,157.50
2023-05-17T05:19:42.933Z,157.50
2023-05-17T05:20:42.822Z,163.13
2023-05-17T05:21:42.736Z,163.13
2023-05-17T05:22:42.651Z,163.13
2023-05-17T05:23:42.569Z,163.13
2023-05-17T05:24:42.481Z,168.75
2023-05-17T05:25:42.406Z,168.75
2023-05-17T05:26:42.316Z,168.75
2023-05-17T05:27:42.239Z,174.38
2023-05-17T05:28:42.152Z,106.88
2023-05-17T05:29:42.076Z,180.00
2023-05-17T05:30:42.056Z,180.00
2023-05-17T05:31:41.903Z,185.63
2023-05-17T05:32:41.929Z,191.25
2023-05-17T05:33:41.787Z,191.25
2023-05-17T05:34:41.665Z,196.88
2023-05-17T05:35:41.572Z,196.88
2023-05-17T05:36:41.492Z,202.50
2023-05-17T05:37:41.406Z,202.50
2023-05-17T05:38:41.326Z,208.13
2023-05-17T05:39:41.242Z,208.13
2023-05-17T05:40:41.156Z,213.75
2023-05-17T05:41:41.072Z,213.75
2023-05-17T05:42:40.996Z,213.75
2023-05-17T05:43:40.919Z,219.38
2023-05-17T05:44:41.778Z,219.38
2023-05-17T05:45:40.745Z,219.38
2023-05-17T05:46:40.734Z,225.00
2023-05-17T05:47:40.631Z,225.00
2023-05-17T05:48:40.514Z,225.00
2023-05-17T05:49:40.426Z,225.00
2023-05-17T05:50:40.329Z,225.00
2023-05-17T05:51:40.247Z,225.00
2023-05-17T05:52:40.180Z,225.00
2023-05-17T05:53:40.093Z,225.00
2023-05-17T05:54:40.035Z,230.63
2023-05-17T05:55:39.920Z,225.00
2023-05-17T05:56:39.866Z,225.00
2023-05-17T05:57:39.752Z,225.00
2023-05-17T05:58:39.682Z,225.00
2023-05-17T05:59:39.598Z,230.63
2023-05-17T06:00:39.531Z,230.63
2023-05-17T06:01:39.435Z,230.63
2023-05-17T06:02:39.523Z,236.25
2023-05-17T06:03:39.265Z,236.25
2023-05-17T06:04:45.279Z,236.25
2023-05-17T06:05:39.230Z,241.88
2023-05-17T06:06:39.223Z,236.25
2023-05-17T06:07:38.956Z,230.63
2023-05-17T06:08:38.856Z,230.63
2023-05-17T06:09:38.777Z,230.63
2023-05-17T06:10:38.688Z,230.63
2023-05-17T06:11:38.605Z,230.63
2023-05-17T06:12:38.531Z,230.63
2023-05-17T06:13:38.441Z,230.63
2023-05-17T06:14:38.361Z,230.63
2023-05-17T06:15:38.305Z,230.63
2023-05-17T06:16:38.229Z,236.25
2023-05-17T06:17:38.142Z,236.25
2023-05-17T06:18:38.372Z,236.25
2023-05-17T06:19:38.136Z,236.25
2023-05-17T06:20:37.878Z,236.25
2023-05-17T06:21:37.786Z,236.25
2023-05-17T06:22:37.703Z,236.25
2023-05-17T06:23:37.619Z,236.25
2023-05-17T06:24:37.545Z,236.25
2023-05-17T06:25:37.463Z,236.25
2023-05-17T06:26:37.372Z,236.25
2023-05-17T06:27:37.295Z,236.25
2023-05-17T06:28:37.207Z,241.88
2023-05-17T06:29:37.132Z,241.88
2023-05-17T06:30:37.053Z,247.50
2023-05-17T06:31:36.962Z,241.88
2023-05-17T06:32:36.943Z,241.88
2023-05-17T06:33:36.902Z,241.88
2023-05-17T06:34:36.874Z,247.50
2023-05-17T06:35:47.897Z,247.50
2023-05-17T06:36:37.614Z,247.50
2023-05-17T06:37:36.472Z,247.50
2023-05-17T06:38:36.406Z,253.13
2023-05-17T06:39:36.302Z,253.13
2023-05-17T06:40:36.688Z,253.13
2023-05-17T06:41:36.134Z,258.75
2023-05-17T06:42:36.055Z,258.75
2023-05-17T06:43:37.747Z,258.75
2023-05-17T06:44:35.894Z,258.75
2023-05-17T06:45:35.812Z,264.38
2023-05-17T06:46:35.725Z,258.75
2023-05-17T06:47:35.729Z,264.38
2023-05-17T06:48:35.693Z,264.38
2023-05-17T06:49:35.476Z,258.75
2023-05-17T06:50:35.556Z,258.75
2023-05-17T06:51:35.315Z,264.38
2023-05-17T06:52:35.232Z,264.38
2023-05-17T06:53:35.162Z,264.38
2023-05-17T06:54:35.075Z,264.38
2023-05-17T06:55:35.002Z,264.38
2023-05-17T06:56:34.953Z,264.38
2023-05-17T06:57:34.836Z,258.75
2023-05-17T06:58:34.747Z,270.00
2023-05-17T06:59:34.668Z,270.00
2023-05-17T07:00:34.673Z,270.00
2023-05-17T07:01:35.290Z,275.63
2023-05-17T07:02:34.883Z,275.63
2023-05-17T07:03:34.454Z,264.38
2023-05-17T07:04:34.289Z,275.63
2023-05-17T07:05:34.450Z,281.25
2023-05-17T07:06:34.258Z,281.25
2023-05-17T07:07:34.012Z,219.38
2023-05-17T07:08:33.920Z,281.25
2023-05-17T07:09:33.839Z,281.25
2023-05-17T07:10:33.773Z,281.25
2023-05-17T07:11:33.700Z,286.88
2023-05-17T07:12:33.593Z,270.00
2023-05-17T07:13:33.529Z,286.88
2023-05-17T07:14:33.437Z,286.88
2023-05-17T07:15:33.354Z,292.50
2023-05-17T07:16:33.271Z,292.50
2023-05-17T07:17:33.242Z,286.88
2023-05-17T07:18:33.265Z,292.50
2023-05-17T07:19:33.144Z,286.88
2023-05-17T07:20:32.960Z,286.88
2023-05-17T07:21:32.864Z,286.88
2023-05-17T07:22:32.784Z,286.88
2023-05-17T07:23:32.700Z,292.50
2023-05-17T07:24:32.619Z,298.13
2023-05-17T07:25:32.533Z,303.75
2023-05-17T07:26:32.495Z,309.38
2023-05-17T07:27:32.376Z,309.38
2023-05-17T07:28:32.291Z,315.00
2023-05-17T07:29:32.212Z,315.00
2023-05-17T07:30:32.126Z,320.63
2023-05-17T07:31:32.062Z,326.25
2023-05-17T07:32:31.996Z,326.25
2023-05-17T07:33:31.888Z,326.25
2023-05-17T07:34:31.855Z,331.88
2023-05-17T07:35:31.872Z,337.50
2023-05-17T07:36:31.660Z,343.13
2023-05-17T07:37:31.556Z,348.75
2023-05-17T07:38:31.628Z,348.75
2023-05-17T07:39:31.391Z,348.75
2023-05-17T07:40:31.314Z,348.75
2023-05-17T07:41:31.230Z,337.50
2023-05-17T07:42:31.159Z,343.13
2023-05-17T07:43:31.066Z,343.13
2023-05-17T07:44:30.999Z,343.13
2023-05-17T07:45:31.084Z,348.75
2023-05-17T07:46:30.848Z,348.75
2023-05-17T07:47:30.840Z,348.75
2023-05-17T07:48:30.762Z,320.63
2023-05-17T07:49:30.770Z,354.38
2023-05-17T07:50:30.506Z,354.38
2023-05-17T07:51:30.420Z,354.38
2023-05-17T07:52:30.334Z,348.75
2023-05-17T07:53:30.266Z,348.75
2023-05-17T07:54:30.180Z,348.75
2023-05-17T07:55:30.271Z,354.38
2023-05-17T07:56:30.012Z,348.75
2023-05-17T07:57:29.941Z,343.13
2023-05-17T07:58:29.852Z,348.75
2023-05-17T07:59:29.772Z,343.13
2023-05-17T08:00:29.692Z,343.13
2023-05-17T08:01:29.605Z,343.13
2023-05-17T08:02:29.640Z,343.13
2023-05-17T08:03:29.452Z,343.13
2023-05-17T08:04:29.635Z,343.13
2023-05-17T08:05:29.642Z,337.50
2023-05-17T08:06:29.297Z,337.50
2023-05-17T08:07:29.135Z,343.13
2023-05-17T08:08:29.098Z,348.75
2023-05-17T08:09:28.957Z,360.00
2023-05-17T08:10:28.944Z,365.63
2023-05-17T08:11:28.805Z,326.25
2023-05-17T08:12:28.713Z,376.88
2023-05-17T08:13:28.641Z,371.25
2023-05-17T08:14:28.564Z,360.00
2023-05-17T08:15:28.556Z,348.75
2023-05-17T08:16:28.413Z,326.25
2023-05-17T08:17:28.379Z,326.25
2023-05-17T08:18:28.345Z,326.25
2023-05-17T08:19:28.264Z,326.25
2023-05-17T08:20:28.062Z,320.63
2023-05-17T08:21:27.983Z,320.63
2023-05-17T08:22:27.904Z,315.00
2023-05-17T08:23:27.821Z,315.00
2023-05-17T08:24:27.768Z,309.38
2023-05-17T08:25:27.736Z,309.38
2023-05-17T08:26:27.642Z,315.00
2023-05-17T08:27:27.502Z,315.00
2023-05-17T08:28:27.420Z,309.38
2023-05-17T08:29:27.336Z,309.38
2023-05-17T08:30:29.197Z,320.63
2023-05-17T08:31:27.172Z,326.25
2023-05-17T08:32:27.124Z,331.88
2023-05-17T08:33:27.092Z,343.13
2023-05-17T08:34:26.930Z,337.50
2023-05-17T08:35:28.899Z,343.13
2023-05-17T08:36:26.767Z,348.75
2023-05-17T08:37:26.701Z,354.38
2023-05-17T08:38:26.606Z,360.00
2023-05-17T08:39:26.538Z,360.00
2023-05-17T08:40:26.547Z,376.88
2023-05-17T08:41:26.367Z,376.88
2023-05-17T08:42:26.292Z,388.13
2023-05-17T08:43:27.760Z,393.75
2023-05-17T08:44:26.119Z,405.00
2023-05-17T08:45:26.042Z,410.63
2023-05-17T08:46:25.966Z,427.50
2023-05-17T08:47:25.936Z,433.13
2023-05-17T08:48:25.844Z,444.38
2023-05-17T08:49:25.899Z,450.00
2023-05-17T08:50:25.637Z,455.63
2023-05-17T08:51:25.557Z,461.25
2023-05-17T08:52:25.479Z,466.88
2023-05-17T08:53:25.466Z,472.50
2023-05-17T08:54:25.330Z,483.75
2023-05-17T08:55:25.229Z,489.38
2023-05-17T08:56:25.152Z,495.00
2023-05-17T08:57:25.073Z,511.88
2023-05-17T08:58:24.989Z,511.88
2023-05-17T08:59:24.912Z,517.50
2023-05-17T09:00:24.828Z,517.50
2023-05-17T09:01:25.821Z,523.13
2023-05-17T09:02:24.743Z,528.75
2023-05-17T09:03:24.805Z,528.75
2023-05-17T09:04:24.543Z,534.38
2023-05-17T09:05:24.513Z,540.00
2023-05-17T09:06:24.391Z,540.00
2023-05-17T09:07:24.269Z,551.25
2023-05-17T09:08:24.231Z,556.88
2023-05-17T09:09:24.108Z,551.25
2023-05-17T09:10:24.032Z,551.25
2023-05-17T09:11:23.947Z,551.25
2023-05-17T09:12:25.676Z,556.88
2023-05-17T09:13:23.788Z,556.88
2023-05-17T09:14:23.710Z,556.88
2023-05-17T09:15:23.637Z,556.88
2023-05-17T09:16:23.579Z,556.88
2023-05-17T09:17:23.529Z,562.50
2023-05-17T09:18:23.557Z,562.50
2023-05-17T09:19:23.428Z,556.88
2023-05-17T09:20:23.321Z,556.88
2023-05-17T09:21:23.152Z,562.50
2023-05-17T09:22:23.072Z,562.50
2023-05-17T09:23:22.997Z,562.50
2023-05-17T09:24:24.015Z,562.50
2023-05-17T09:25:22.829Z,573.75
2023-05-17T09:26:22.760Z,568.13
2023-05-17T09:27:22.673Z,573.75
2023-05-17T09:28:22.603Z,579.38
2023-05-17T09:29:22.514Z,585.00
2023-05-17T09:30:25.148Z,590.63
2023-05-17T09:31:22.361Z,596.25
2023-05-17T09:32:22.286Z,607.50
2023-05-17T09:33:22.240Z,601.88
2023-05-17T09:34:22.117Z,607.50
2023-05-17T09:35:22.043Z,607.50
2023-05-17T09:36:21.955Z,607.50
2023-05-17T09:37:21.887Z,607.50
2023-05-17T09:38:22.944Z,613.13
2023-05-17T09:39:21.723Z,613.13
2023-05-17T09:40:21.640Z,618.75
2023-05-17T09:41:21.563Z,618.75
2023-05-17T09:42:21.485Z,624.38
2023-05-17T09:43:21.403Z,624.38
2023-05-17T09:44:21.613Z,630.00
2023-05-17T09:45:21.273Z,630.00
2023-05-17T09:46:21.186Z,630.00
2023-05-17T09:47:21.126Z,635.63
2023-05-17T09:48:21.078Z,635.63
2023-05-17T09:49:20.951Z,635.63
2023-05-17T09:50:21.378Z,641.25
2023-05-17T09:51:20.775Z,641.25
2023-05-17T09:52:20.696Z,641.25
2023-05-17T09:53:20.613Z,641.25
2023-05-17T09:54:20.532Z,641.25
2023-05-17T09:55:20.460Z,641.25
2023-05-17T09:56:20.391Z,641.25
2023-05-17T09:57:20.297Z,641.25
2023-05-17T09:58:20.222Z,635.63
2023-05-17T09:59:20.145Z,630.00
2023-05-17T10:00:20.102Z,624.38
2023-05-17T10:01:19.982Z,618.75
2023-05-17T10:02:19.963Z,613.13
2023-05-17T10:03:19.934Z,607.50
2023-05-17T10:04:19.746Z,590.63
2023-05-17T10:05:19.695Z,585.00
2023-05-17T10:06:28.109Z,590.63
2023-05-17T10:07:19.505Z,590.63
2023-05-17T10:08:19.432Z,596.25
2023-05-17T10:09:19.359Z,613.13
2023-05-17T10:10:19.370Z,630.00
2023-05-17T10:11:19.195Z,641.25
2023-05-17T10:12:19.116Z,641.25
2023-05-17T10:13:19.039Z,635.63
2023-05-17T10:14:18.957Z,630.00
2023-05-17T10:15:18.880Z,641.25
2023-05-17T10:16:18.820Z,646.88
2023-05-17T10:17:18.720Z,635.63
2023-05-17T10:18:18.765Z,618.75
2023-05-17T10:19:18.622Z,613.13
2023-05-17T10:20:18.620Z,613.13
2023-05-17T10:21:18.408Z,624.38
2023-05-17T10:22:23.061Z,641.25
2023-05-17T10:23:18.270Z,658.13
2023-05-17T10:24:18.174Z,680.63
2023-05-17T10:25:18.101Z,686.25
2023-05-17T10:26:18.015Z,697.50
2023-05-17T10:27:17.957Z,703.13
2023-05-17T10:28:17.854Z,725.63
2023-05-17T10:29:17.793Z,736.88
2023-05-17T10:30:17.726Z,748.13
2023-05-17T10:31:17.626Z,748.13
2023-05-17T10:32:17.545Z,725.63
2023-05-17T10:33:17.524Z,691.88
2023-05-17T10:34:17.572Z,697.50
2023-05-17T10:35:17.316Z,731.25
2023-05-17T10:36:17.247Z,736.88
2023-05-17T10:37:17.163Z,742.50
2023-05-17T10:38:17.074Z,748.13
2023-05-17T10:39:17.008Z,770.63
2023-05-17T10:40:17.014Z,770.63
2023-05-17T10:41:16.848Z,776.25
2023-05-17T10:42:16.769Z,770.63
2023-05-17T10:43:16.694Z,787.50
2023-05-17T10:44:16.606Z,793.13
2023-05-17T10:45:16.530Z,787.50
2023-05-17T10:46:16.453Z,787.50
2023-05-17T10:47:16.376Z,787.50
2023-05-17T10:48:16.424Z,770.63
2023-05-17T10:49:17.067Z,765.00
2023-05-17T10:50:16.144Z,765.00
2023-05-17T10:51:16.069Z,765.00
2023-05-17T10:52:15.986Z,731.25
2023-05-17T10:53:15.907Z,720.00
2023-05-17T10:54:15.827Z,714.38
2023-05-17T10:55:15.755Z,742.50
2023-05-17T10:56:15.675Z,753.75
2023-05-17T10:57:15.591Z,742.50
2023-05-17T10:58:15.517Z,720.00
2023-05-17T10:59:15.440Z,675.00
2023-05-17T11:00:15.363Z,630.00
2023-05-17T11:01:15.280Z,585.00
2023-05-17T11:02:15.202Z,556.88
2023-05-17T11:03:15.126Z,568.13
2023-05-17T11:04:15.083Z,607.50
2023-05-17T11:05:15.235Z,618.75
2023-05-17T11:06:22.719Z,646.88
2023-05-17T11:07:14.813Z,691.88
2023-05-17T11:08:14.737Z,714.38
2023-05-17T11:09:14.652Z,731.25
2023-05-17T11:10:14.587Z,742.50
2023-05-17T11:11:14.507Z,736.88
2023-05-17T11:12:14.424Z,697.50
2023-05-17T11:13:14.346Z,669.38
2023-05-17T11:14:14.269Z,663.75
2023-05-17T11:15:14.190Z,680.63
2023-05-17T11:16:14.941Z,708.75
2023-05-17T11:17:14.041Z,720.00
2023-05-17T11:18:26.324Z,742.50
2023-05-17T11:19:13.955Z,736.88
2023-05-17T11:20:14.102Z,725.63
2023-05-17T11:21:13.727Z,708.75
2023-05-17T11:22:13.653Z,714.38
2023-05-17T11:23:13.575Z,697.50
2023-05-17T11:24:13.491Z,703.13
2023-05-17T11:25:13.423Z,714.38
2023-05-17T11:26:16.255Z,731.25
2023-05-17T11:27:13.263Z,748.13
2023-05-17T11:28:13.192Z,765.00
2023-05-17T11:29:13.108Z,787.50
2023-05-17T11:30:13.030Z,793.13
2023-05-17T11:31:12.984Z,781.88
2023-05-17T11:32:12.880Z,810.00
2023-05-17T11:33:24.992Z,804.38
2023-05-17T11:34:12.782Z,798.75
2023-05-17T11:35:12.642Z,815.63
2023-05-17T11:36:12.558Z,832.50
2023-05-17T11:37:12.493Z,832.50
2023-05-17T11:38:12.416Z,826.88
2023-05-17T11:39:12.334Z,798.75
2023-05-17T11:40:12.307Z,781.88
2023-05-17T11:41:16.122Z,753.75
2023-05-17T11:42:12.098Z,731.25
2023-05-17T11:43:12.020Z,787.50
2023-05-17T11:44:11.937Z,832.50
2023-05-17T11:45:11.877Z,894.38
2023-05-17T11:46:11.805Z,950.63
2023-05-17T11:47:11.723Z,995.63
2023-05-17T11:48:11.700Z,1006.88
2023-05-17T11:49:17.737Z,1012.50
2023-05-17T11:50:11.479Z,995.63
2023-05-17T11:51:11.424Z,1018.13
2023-05-17T11:52:11.318Z,1018.13
2023-05-17T11:53:11.248Z,1012.50
2023-05-17T11:54:11.175Z,1057.50
2023-05-17T11:55:11.097Z,1051.88
2023-05-17T11:56:11.033Z,1063.13
2023-05-17T11:57:10.945Z,1046.25
2023-05-17T11:58:10.855Z,1046.25
2023-05-17T11:59:10.976Z,1046.25
2023-05-17T12:00:10.706Z,1046.25
2023-05-17T12:01:10.650Z,1051.88
2023-05-17T12:02:10.557Z,1046.25
2023-05-17T12:03:10.555Z,1046.25
2023-05-17T12:04:10.454Z,1057.50
2023-05-17T12:05:10.368Z,1057.50
2023-05-17T12:06:10.297Z,1063.13
2023-05-17T12:07:10.168Z,1063.13
2023-05-17T12:08:10.094Z,1068.75
2023-05-17T12:09:10.016Z,1068.75
2023-05-17T12:10:09.953Z,1068.75
2023-05-17T12:11:09.861Z,1074.38
2023-05-17T12:12:09.820Z,1085.63
2023-05-17T12:13:09.705Z,1085.63
2023-05-17T12:14:09.626Z,1096.88
2023-05-17T12:15:09.551Z,1091.25
2023-05-17T12:16:09.496Z,1091.25
2023-05-17T12:17:09.409Z,1091.25
2023-05-17T12:18:09.414Z,1080.00
2023-05-17T12:19:09.381Z,1091.25
2023-05-17T12:20:09.211Z,1074.38
2023-05-17T12:21:09.113Z,1080.00
2023-05-17T12:22:09.042Z,1085.63
2023-05-17T12:23:08.944Z,1102.50
2023-05-17T12:24:08.894Z,1091.25
2023-05-17T12:25:08.817Z,1068.75
2023-05-17T12:26:08.760Z,1080.00
2023-05-17T12:27:08.655Z,1102.50
2023-05-17T12:28:08.575Z,1113.75
2023-05-17T12:29:09.709Z,1130.63
2023-05-17T12:30:08.401Z,1091.25
2023-05-17T12:31:08.331Z,1130.63
2023-05-17T12:32:08.252Z,1181.25
2023-05-17T12:33:08.318Z,1164.38
2023-05-17T12:34:08.166Z,1203.75
2023-05-17T12:35:08.910Z,1186.88
2023-05-17T12:36:07.970Z,1113.75
2023-05-17T12:37:07.877Z,1012.50
2023-05-17T12:38:07.805Z,990.00
2023-05-17T12:39:07.728Z,1023.75
2023-05-17T12:40:07.676Z,1040.63
2023-05-17T12:41:07.571Z,1085.63